Time;durP1;ratioP1;P1;durP2;ratioP2;P2;SDS_P1;SDS_P2;PMS_P1;PMS_P2;Temp;Humidity;BMP_temperature;BMP_pressure;BME280_temperature;BME280_humidity;BME280_pressure;Samples;Min_cycle;Max_cycle;Signal;HPM_P1;HPM_P2
2024/04/01 00:03:17;;;;;;;;;;;;;;;20.60;44.67;93589.66;10464892;28;2600;-62
2024/04/01 00:08:20;;;;;;;;;;;;;;;20.59;44.75;93575.72;10454644;28;2522;-62
2024/04/01 00:13:20;;;;;;;;;;;;;;;20.58;44.70;93576.06;10461254;28;2566;-62
2024/04/01 00:18:20;;;;;;;;;;;;;;;20.58;44.44;93552.38;10472065;28;2542;-63
2024/04/01 00:23:20;;;;;;;;;;;;;;;20.56;44.66;93547.44;10464742;28;2581;-62
2024/04/01 00:28:21;;;;;;;;;;;;;;;20.57;44.58;93561.34;10469876;28;2586;-63
2024/04/01 00:33:21;;;;;;;;;;;;;;;20.56;44.45;93557.19;10450651;28;2518;-63
2024/04/01 00:38:22;;;;;;;;;;;;;;;20.55;44.60;93540.63;10448243;28;2553;-62
2024/04/01 00:43:25;;;;;;;;;;;;;;;20.55;44.43;93539.84;10484588;28;2570;-62
2024/04/01 00:48:25;;;;;;;;;;;;;;;20.54;44.69;93536.47;10450034;28;2561;-62
2024/04/01 00:53:25;;;;;;;;;;;;;;;20.54;44.50;93510.16;10468220;28;2538;-62
2024/04/01 00:58:26;;;;;;;;;;;;;;;20.53;44.65;93481.50;10450367;28;2684;-62
2024/04/01 01:03:26;;;;;;;;;;;;;;;20.51;44.79;93437.09;10469482;28;2589;-63
2024/04/01 01:08:26;;;;;;;;;;;;;;;20.54;44.86;93451.47;10464347;28;2537;-63
2024/04/01 01:13:26;;;;;;;;;;;;;;;20.53;44.85;93405.19;10456623;28;2683;-63
2024/04/01 01:18:27;;;;;;;;;;;;;;;20.51;44.66;93447.63;10472302;28;2530;-62
2024/04/01 01:23:27;;;;;;;;;;;;;;;20.51;44.66;93413.41;10474757;28;2470;-62
2024/04/01 01:28:29;;;;;;;;;;;;;;;20.50;44.60;93432.94;10472287;28;2490;-62
2024/04/01 01:33:30;;;;;;;;;;;;;;;20.49;44.75;93376.13;10455440;28;2541;-62
2024/04/01 01:38:30;;;;;;;;;;;;;;;20.49;44.51;93384.03;10486826;28;2609;-62
2024/04/01 01:43:30;;;;;;;;;;;;;;;20.49;44.54;93364.81;10473242;28;2344;-62
2024/04/01 01:48:31;;;;;;;;;;;;;;;20.48;44.49;93366.72;10475673;28;2586;-62
2024/04/01 01:53:31;;;;;;;;;;;;;;;20.48;44.77;93400.16;10473175;28;2372;-63
2024/04/01 01:58:31;;;;;;;;;;;;;;;20.48;44.48;93400.16;10468871;28;2391;-62
2024/04/01 02:03:34;;;;;;;;;;;;;;;20.46;44.39;93395.22;10472287;28;2558;-62
2024/04/01 02:08:34;;;;;;;;;;;;;;;20.45;44.70;93388.41;10472963;28;2581;-62
2024/04/01 02:13:35;;;;;;;;;;;;;;;20.47;44.58;93390.72;10454954;28;2569;-62
2024/04/01 02:18:35;;;;;;;;;;;;;;;20.45;44.63;93348.94;10471075;28;2635;-62
2024/04/01 02:23:35;;;;;;;;;;;;;;;20.45;44.50;93319.22;10472761;28;2435;-62
2024/04/01 02:28:36;;;;;;;;;;;;;;;20.44;44.82;93292.16;10469686;28;2624;-62
2024/04/01 02:33:36;;;;;;;;;;;;;;;20.45;44.55;93316.59;10476334;28;2605;-62
2024/04/01 02:38:36;;;;;;;;;;;;;;;20.42;44.49;93268.03;10467813;28;2542;-63
2024/04/01 02:43:37;;;;;;;;;;;;;;;20.43;44.82;93293.25;10467355;28;2615;-63
2024/04/01 02:48:37;;;;;;;;;;;;;;;20.42;44.72;93307.50;10474215;28;2486;-62
2024/04/01 02:53:38;;;;;;;;;;;;;;;20.43;44.59;93342.47;10473360;28;2545;-62
2024/04/01 02:58:39;;;;;;;;;;;;;;;20.43;44.55;93310.88;10468734;28;2344;-61
2024/04/01 03:03:39;;;;;;;;;;;;;;;20.41;44.92;93282.28;10471447;28;2526;-62
2024/04/01 03:08:39;;;;;;;;;;;;;;;20.41;44.55;93261.22;10467068;28;2565;-63
2024/04/01 03:13:40;;;;;;;;;;;;;;;20.40;44.78;93233.41;10436309;28;2640;-62
2024/04/01 03:18:40;;;;;;;;;;;;;;;20.40;44.50;93251.03;10463902;28;2487;-62
2024/04/01 03:23:41;;;;;;;;;;;;;;;20.39;44.70;93279.22;10468241;28;2577;-62
2024/04/01 03:28:41;;;;;;;;;;;;;;;20.38;44.63;93293.47;10453177;28;2633;-62
2024/04/01 03:33:44;;;;;;;;;;;;;;;20.37;44.49;93270.13;10450872;28;2628;-63
2024/04/01 03:38:44;;;;;;;;;;;;;;;20.37;44.47;93255.09;10471200;28;2483;-62
2024/04/01 03:43:45;;;;;;;;;;;;;;;20.36;44.82;93243.03;10451461;28;2608;-62
2024/04/01 03:48:45;;;;;;;;;;;;;;;20.36;44.35;93266.72;10465021;28;2545;-62
2024/04/01 03:53:45;;;;;;;;;;;;;;;20.36;44.54;93263.34;10463872;28;2541;-63
2024/04/01 03:58:45;;;;;;;;;;;;;;;20.35;44.43;93259.94;10461555;28;2660;-62
2024/04/01 04:03:46;;;;;;;;;;;;;;;20.36;44.46;93258.06;10463080;28;2491;-62
2024/04/01 04:08:47;;;;;;;;;;;;;;;20.37;44.64;93264.84;10471153;28;2499;-63
2024/04/01 04:13:47;;;;;;;;;;;;;;;20.39;44.41;93258.16;10468691;28;2617;-62
2024/04/01 04:18:47;;;;;;;;;;;;;;;20.45;44.41;93259.47;10449477;28;2609;-62
2024/04/01 04:23:47;;;;;;;;;;;;;;;20.50;44.21;93248.72;10456305;28;2475;-62
2024/04/01 04:28:48;;;;;;;;;;;;;;;20.55;44.45;93253.75;10450425;28;2688;-62
2024/04/01 04:33:48;;;;;;;;;;;;;;;20.59;44.08;93294.09;10467013;28;2503;-62
2024/04/01 04:38:48;;;;;;;;;;;;;;;20.64;44.46;93291.25;10452358;28;2360;-62
2024/04/01 04:43:49;;;;;;;;;;;;;;;20.69;42.70;93287.63;10466527;28;2417;-62
2024/04/01 04:48:49;;;;;;;;;;;;;;;20.74;42.45;93297.91;10463424;28;2530;-62
2024/04/01 04:53:49;;;;;;;;;;;;;;;20.80;42.67;93302.63;10435942;28;2657;-62
2024/04/01 04:58:53;;;;;;;;;;;;;;;20.83;43.71;93309.84;10462547;28;2642;-62
2024/04/01 05:03:54;;;;;;;;;;;;;;;20.88;43.56;93306.19;10452168;28;2650;-62
2024/04/01 05:08:54;;;;;;;;;;;;;;;20.91;43.34;93295.78;10463103;28;2612;-62
2024/04/01 05:13:54;;;;;;;;;;;;;;;20.96;42.80;93285.00;10451874;28;2632;-62
2024/04/01 05:18:54;;;;;;;;;;;;;;;20.98;42.83;93277.53;10450194;28;2588;-62
2024/04/01 05:23:55;;;;;;;;;;;;;;;20.99;43.32;93265.16;10446122;28;2698;-62
2024/04/01 05:28:55;;;;;;;;;;;;;;;21.01;43.30;93261.06;10466509;28;2601;-62
2024/04/01 05:33:57;;;;;;;;;;;;;;;21.03;43.55;93277.34;10449695;28;2563;-62
2024/04/01 05:38:57;;;;;;;;;;;;;;;21.02;43.03;93273.16;10463201;28;2356;-62
2024/04/01 05:43:57;;;;;;;;;;;;;;;21.08;42.63;93279.72;10448618;28;2463;-62
2024/04/01 05:48:58;;;;;;;;;;;;;;;21.11;43.21;93295.97;10459927;28;2605;-63
2024/04/01 05:53:58;;;;;;;;;;;;;;;21.08;42.87;93306.06;10465825;28;2297;-62
2024/04/01 05:58:59;;;;;;;;;;;;;;;21.12;42.48;93284.34;10468001;28;2483;-62
2024/04/01 06:03:59;;;;;;;;;;;;;;;21.12;42.68;93276.44;10469010;28;2607;-63
2024/04/01 06:08:59;;;;;;;;;;;;;;;21.14;42.72;93276.84;10437699;28;2592;-62
2024/04/01 06:13:59;;;;;;;;;;;;;;;21.20;43.62;93271.03;10447986;28;2705;-62
2024/04/01 06:19:00;;;;;;;;;;;;;;;21.18;42.74;93296.94;10468027;28;2482;-62
2024/04/01 06:24:00;;;;;;;;;;;;;;;21.21;43.35;93298.88;10465963;28;2612;-62
2024/04/01 06:29:00;;;;;;;;;;;;;;;21.23;43.29;93301.19;10472514;28;2435;-63
2024/04/01 06:34:00;;;;;;;;;;;;;;;21.25;43.25;93307.66;10451979;28;2566;-63
2024/04/01 06:39:03;;;;;;;;;;;;;;;21.26;42.88;93321.59;10469607;28;2552;-62
2024/04/01 06:44:03;;;;;;;;;;;;;;;21.30;42.88;93299.50;10465269;28;2582;-62
2024/04/01 06:49:04;;;;;;;;;;;;;;;21.33;43.50;93275.13;10457800;28;2553;-62
2024/04/01 06:54:04;;;;;;;;;;;;;;;21.35;43.83;93272.16;10468636;28;2670;-61
2024/04/01 06:59:04;;;;;;;;;;;;;;;21.38;43.39;93372.38;10468953;28;2608;-59
2024/04/01 07:04:04;;;;;;;;;;;;;;;21.36;43.53;93390.41;10466420;28;2598;-59
2024/04/01 07:09:05;;;;;;;;;;;;;;;21.37;43.84;93393.81;10466673;28;2605;-64
2024/04/01 07:14:05;;;;;;;;;;;;;;;21.42;42.70;93404.88;10445719;28;2542;-63
2024/04/01 07:19:05;;;;;;;;;;;;;;;21.44;42.48;93426.41;10448048;28;2575;-60
2024/04/01 07:24:06;;;;;;;;;;;;;;;21.44;43.79;93447.47;10457964;28;2565;-60
2024/04/01 07:29:06;;;;;;;;;;;;;;;21.45;43.73;93493.06;10448031;28;2498;-58
2024/04/01 07:34:07;;;;;;;;;;;;;;;21.43;42.74;93580.34;10461080;28;2514;-62
2024/04/01 07:39:07;;;;;;;;;;;;;;;21.44;42.72;93602.97;10464042;28;2555;-62
2024/04/01 07:44:07;;;;;;;;;;;;;;;21.43;41.13;93590.16;10450534;28;2641;-63
2024/04/01 07:49:08;;;;;;;;;;;;;;;21.42;40.38;93678.97;10453495;28;2558;-63
2024/04/01 07:54:08;;;;;;;;;;;;;;;21.40;40.15;93706.75;10464448;28;2497;-63
2024/04/01 07:59:08;;;;;;;;;;;;;;;21.41;40.51;93732.03;10449417;28;2555;-62
2024/04/01 08:04:09;;;;;;;;;;;;;;;21.39;40.55;93763.22;10451311;28;2427;-63
2024/04/01 08:09:09;;;;;;;;;;;;;;;21.37;40.06;93776.69;10463314;28;2574;-63
2024/04/01 08:14:09;;;;;;;;;;;;;;;21.43;38.81;93814.19;10448726;28;2324;-63
2024/04/01 08:19:09;;;;;;;;;;;;;;;21.43;40.05;93856.34;10465527;28;2609;-63
2024/04/01 08:24:10;;;;;;;;;;;;;;;21.38;40.02;93872.34;10464536;28;2530;-63
2024/04/01 08:29:10;;;;;;;;;;;;;;;21.44;39.30;93886.88;10465816;28;2601;-63
2024/04/01 08:34:11;;;;;;;;;;;;;;;21.45;39.63;93893.69;10466852;28;2604;-65
2024/04/01 08:39:11;;;;;;;;;;;;;;;21.43;38.74;93909.81;10463472;28;2852;-63
2024/04/01 08:44:14;;;;;;;;;;;;;;;21.46;38.91;93938.19;10460995;28;2534;-63
2024/04/01 08:49:14;;;;;;;;;;;;;;;21.45;38.99;93946.41;10467793;28;2687;-63
2024/04/01 08:54:15;;;;;;;;;;;;;;;21.47;39.22;93957.41;10464823;28;2580;-63
2024/04/01 08:59:17;;;;;;;;;;;;;;;21.48;39.45;93961.59;10478043;28;2562;-63
2024/04/01 09:04:17;;;;;;;;;;;;;;;21.49;39.13;93984.22;10461255;28;2570;-63
2024/04/01 09:09:17;;;;;;;;;;;;;;;21.47;39.71;93989.03;10451168;28;2634;-63
2024/04/01 09:14:18;;;;;;;;;;;;;;;21.49;38.55;94002.69;10450916;28;2530;-63
2024/04/01 09:19:18;;;;;;;;;;;;;;;21.51;38.68;94018.94;10460983;28;2581;-64
2024/04/01 09:24:18;;;;;;;;;;;;;;;21.49;39.75;94027.19;10450219;28;2497;-65
2024/04/01 09:29:20;;;;;;;;;;;;;;;21.49;39.37;94047.50;10464308;28;2530;-64
2024/04/01 09:34:21;;;;;;;;;;;;;;;21.50;39.51;94051.66;10456473;28;2541;-64
2024/04/01 09:39:23;;;;;;;;;;;;;;;21.51;39.62;94050.59;10470238;28;2538;-63
2024/04/01 09:44:24;;;;;;;;;;;;;;;21.52;39.29;94067.94;10473597;28;2557;-64
2024/04/01 09:49:24;;;;;;;;;;;;;;;21.53;39.43;94087.94;10470231;28;2533;-64
2024/04/01 09:54:25;;;;;;;;;;;;;;;21.54;39.50;94090.25;10470363;28;2586;-64
2024/04/01 09:59:41;;;;;;;;;;;;;;;21.52;39.43;94100.34;10471134;28;2462;-64
2024/04/01 10:04:57;;;;;;;;;;;;;;;21.55;38.71;94091.03;10457011;28;2351;-65
2024/04/01 10:10:04;;;;;;;;;;;;;;;21.54;38.85;94102.66;10470938;28;2612;-64
2024/04/01 10:15:16;;;;;;;;;;;;;;;21.53;39.30;94101.13;10452401;28;2566;-64
2024/04/01 10:20:22;;;;;;;;;;;;;;;21.55;38.64;94117.41;10457619;28;2554;-63
2024/04/01 10:25:41;;;;;;;;;;;;;;;21.55;38.25;94114.75;10472378;28;2692;-63
2024/04/01 10:30:44;;;;;;;;;;;;;;;21.55;38.53;94102.34;10470186;28;2510;-62
2024/04/01 10:35:53;;;;;;;;;;;;;;;21.54;38.71;94113.19;10469427;28;2646;-62
2024/04/01 10:40:53;;;;;;;;;;;;;;;21.52;38.01;94110.88;10474975;28;2513;-63
2024/04/01 10:46:05;;;;;;;;;;;;;;;21.50;37.76;94138.66;10467036;28;2609;-63
2024/04/01 10:51:24;;;;;;;;;;;;;;;21.46;38.43;94153.56;10470362;28;2479;-62
2024/04/01 10:56:45;;;;;;;;;;;;;;;21.47;37.96;94166.44;10457636;28;2407;-63
2024/04/01 11:02:03;;;;;;;;;;;;;;;21.47;37.93;94165.66;10469682;28;2581;-63
2024/04/01 11:07:06;;;;;;;;;;;;;;;21.45;38.91;94175.75;10469764;28;2566;-63
2024/04/01 11:12:09;;;;;;;;;;;;;;;21.46;38.22;94175.44;10469283;28;2526;-63
2024/04/01 11:17:09;;;;;;;;;;;;;;;21.48;38.46;94172.47;10469253;28;2482;-63
2024/04/01 11:22:18;;;;;;;;;;;;;;;21.46;39.19;94154.34;10454334;28;2530;-63
2024/04/01 11:27:41;;;;;;;;;;;;;;;21.46;38.99;94166.75;10468226;28;2604;-63
2024/04/01 11:32:42;;;;;;;;;;;;;;;21.47;38.34;94170.94;10466336;28;2519;-63
2024/04/01 11:37:48;;;;;;;;;;;;;;;21.46;38.80;94172.81;10451774;28;2542;-64
2024/04/01 11:42:53;;;;;;;;;;;;;;;21.49;38.80;94179.31;10465362;28;2600;-63
2024/04/01 11:47:53;;;;;;;;;;;;;;;21.47;38.74;94198.09;10465411;28;2479;-63
2024/04/01 11:52:57;;;;;;;;;;;;;;;21.46;38.54;94185.19;10451245;28;2475;-63
2024/04/01 11:58:08;;;;;;;;;;;;;;;21.50;38.96;94172.94;10473056;28;2510;-63
2024/04/01 12:03:08;;;;;;;;;;;;;;;21.47;37.77;94190.19;10435420;28;2676;-63
2024/04/01 12:08:08;;;;;;;;;;;;;;;21.48;38.13;94190.94;10462044;28;2526;-63
2024/04/01 12:13:09;;;;;;;;;;;;;;;21.46;38.20;94178.06;10468879;28;2620;-63
2024/04/01 12:18:16;;;;;;;;;;;;;;;21.46;37.67;94206.28;10452415;28;2612;-63
2024/04/01 12:23:18;;;;;;;;;;;;;;;21.41;38.39;94217.03;10466385;28;2666;-62
2024/04/01 12:28:18;;;;;;;;;;;;;;;21.44;37.04;94221.66;10449150;28;2487;-63
2024/04/01 12:33:19;;;;;;;;;;;;;;;21.37;37.30;94216.84;10447910;28;2709;-62
2024/04/01 12:38:22;;;;;;;;;;;;;;;21.38;37.20;94225.53;10431439;28;2584;-63
2024/04/01 12:43:22;;;;;;;;;;;;;;;21.36;37.77;94230.34;10469633;28;2562;-63
2024/04/01 12:48:22;;;;;;;;;;;;;;;21.31;39.00;94264.81;10466330;28;2391;-63
2024/04/01 12:53:41;;;;;;;;;;;;;;;21.30;37.95;94250.84;10455752;28;2553;-63
2024/04/01 12:58:56;;;;;;;;;;;;;;;21.26;37.48;94263.09;10469010;28;2612;-63
2024/04/01 13:04:06;;;;;;;;;;;;;;;21.25;37.72;94268.66;10467642;28;2501;-63
2024/04/01 13:09:09;;;;;;;;;;;;;;;21.21;37.88;94288.81;10460594;28;2561;-63
2024/04/01 13:14:13;;;;;;;;;;;;;;;21.18;36.95;94274.44;10472014;28;2579;-63
2024/04/01 13:19:32;;;;;;;;;;;;;;;21.18;37.48;94287.59;10473534;28;2543;-63
2024/04/01 13:24:32;;;;;;;;;;;;;;;21.17;37.41;94287.91;10471891;28;2601;-63
2024/04/01 13:29:33;;;;;;;;;;;;;;;21.15;37.77;94297.97;10475110;28;2669;-63
2024/04/01 13:34:36;;;;;;;;;;;;;;;21.12;37.32;94298.63;10473721;28;2336;-63
2024/04/01 13:39:52;;;;;;;;;;;;;;;21.12;37.97;94311.78;10468883;28;2537;-63
2024/04/01 13:44:58;;;;;;;;;;;;;;;21.12;37.62;94323.09;10455493;28;2328;-63
2024/04/01 13:50:17;;;;;;;;;;;;;;;21.14;36.75;94314.88;10475961;28;2502;-62
2024/04/01 13:55:21;;;;;;;;;;;;;;;21.17;36.86;94332.69;10473649;28;2616;-61
2024/04/01 14:00:26;;;;;;;;;;;;;;;21.17;37.24;94330.84;10455614;28;2380;-62
2024/04/01 14:05:41;;;;;;;;;;;;;;;21.20;37.56;94342.63;10467131;28;2477;-62
2024/04/01 14:10:56;;;;;;;;;;;;;;;21.26;39.22;94344.00;10452455;28;2538;-62
2024/04/01 14:15:56;;;;;;;;;;;;;;;21.35;38.26;94357.97;10453719;28;2627;-58
2024/04/01 14:20:56;;;;;;;;;;;;;;;21.43;37.82;94346.66;10471506;28;2573;-58
2024/04/01 14:25:56;;;;;;;;;;;;;;;21.54;37.81;94350.50;10469904;28;2568;-58
2024/04/01 14:30:57;;;;;;;;;;;;;;;21.60;38.30;94355.28;10468512;28;2545;-58
2024/04/01 14:35:58;;;;;;;;;;;;;;;21.70;37.81;94356.84;10467363;28;2632;-57
2024/04/01 14:40:58;;;;;;;;;;;;;;;21.73;39.26;94354.34;10463654;28;2557;-58
2024/04/01 14:45:58;;;;;;;;;;;;;;;21.81;38.79;94365.97;10453081;28;2526;-63
2024/04/01 14:50:59;;;;;;;;;;;;;;;21.88;37.38;94371.56;10454262;28;2546;-64
2024/04/01 14:55:59;;;;;;;;;;;;;;;21.87;39.14;94377.91;10470159;28;2693;-60
2024/04/01 15:01:00;;;;;;;;;;;;;;;21.92;38.97;94377.78;10485917;28;2529;-62
2024/04/01 15:06:00;;;;;;;;;;;;;;;21.96;37.86;94373.41;10455827;28;2642;-62
2024/04/01 15:11:03;;;;;;;;;;;;;;;22.02;36.51;94366.09;10453533;28;2447;-62
2024/04/01 15:16:05;;;;;;;;;;;;;;;22.01;36.50;94365.31;10451142;28;2554;-62
2024/04/01 15:21:06;;;;;;;;;;;;;;;22.01;36.23;94362.66;10470850;28;2533;-62
2024/04/01 15:26:07;;;;;;;;;;;;;;;21.96;36.48;94359.44;10471246;28;2640;-61
2024/04/01 15:31:07;;;;;;;;;;;;;;;21.97;36.95;94366.28;10484609;28;2944;-62
2024/04/01 15:36:08;;;;;;;;;;;;;;;22.00;37.00;94376.19;10468727;28;1501;-62
2024/04/01 15:41:08;;;;;;;;;;;;;;;22.01;37.66;94344.19;10471800;28;2019;-61
2024/04/01 15:46:09;;;;;;;;;;;;;;;22.02;37.05;94376.66;10474787;28;1615;-61
2024/04/01 15:51:09;;;;;;;;;;;;;;;21.96;36.81;94388.47;10486519;28;1910;-62
2024/04/01 15:56:10;;;;;;;;;;;;;;;21.99;36.68;94396.50;10482952;28;1908;-61
2024/04/01 16:01:11;;;;;;;;;;;;;;;22.02;36.63;94397.75;10466324;28;1442;-61
2024/04/01 16:06:11;;;;;;;;;;;;;;;21.99;36.82;94385.22;10484696;28;1511;-61
2024/04/01 16:11:12;;;;;;;;;;;;;;;22.04;37.18;94385.81;10470324;28;2017;-62
2024/04/01 16:16:13;;;;;;;;;;;;;;;22.00;36.72;94406.00;10453745;28;2829;-62
2024/04/01 16:21:23;;;;;;;;;;;;;;;21.98;38.36;94402.91;10486407;28;1484;-63
2024/04/01 16:26:23;;;;;;;;;;;;;;;22.04;36.38;94399.00;10496419;28;1511;-62
2024/04/01 16:31:23;;;;;;;;;;;;;;;22.01;37.40;94410.16;10483399;28;1902;-62
2024/04/01 16:36:23;;;;;;;;;;;;;;;22.05;36.47;94424.28;10481414;28;1455;-62
2024/04/01 16:41:24;;;;;;;;;;;;;;;22.00;36.58;94442.94;10485069;28;1641;-61
2024/04/01 16:46:24;;;;;;;;;;;;;;;22.02;36.35;94430.19;10468405;28;1578;-64
2024/04/01 16:51:27;;;;;;;;;;;;;;;22.04;37.01;94435.94;10447729;28;2036;-63
2024/04/01 16:56:28;;;;;;;;;;;;;;;22.03;36.25;94438.91;10466366;28;1531;-61
2024/04/01 17:01:29;;;;;;;;;;;;;;;22.03;37.14;94458.13;10483384;28;1433;-61
2024/04/01 17:06:29;;;;;;;;;;;;;;;22.06;36.08;94459.38;10466123;28;2563;-60
2024/04/01 17:11:29;;;;;;;;;;;;;;;22.00;37.02;94465.91;10448733;28;1973;-60
2024/04/01 17:16:29;;;;;;;;;;;;;;;22.01;37.77;94464.81;10460616;28;1716;-62
2024/04/01 17:21:31;;;;;;;;;;;;;;;21.88;38.00;94466.53;10480612;28;1867;-62
2024/04/01 17:26:31;;;;;;;;;;;;;;;21.93;37.25;94449.78;10474130;28;1979;-61
2024/04/01 17:31:31;;;;;;;;;;;;;;;22.01;36.31;94433.16;10458386;28;2107;-61
2024/04/01 17:36:32;;;;;;;;;;;;;;;21.98;36.19;94460.16;10459962;28;2074;-62
2024/04/01 17:41:32;;;;;;;;;;;;;;;21.96;36.37;94460.47;10469792;28;2260;-61
2024/04/01 17:46:33;;;;;;;;;;;;;;;21.92;36.63;94449.00;10493078;28;2200;-61
2024/04/01 17:51:33;;;;;;;;;;;;;;;21.88;37.25;94456.00;10451765;28;1913;-61
2024/04/01 17:56:33;;;;;;;;;;;;;;;21.85;36.71;94462.66;10490188;28;1808;-61
2024/04/01 18:01:34;;;;;;;;;;;;;;;21.81;37.12;94487.28;10485362;28;1915;-61
2024/04/01 18:06:34;;;;;;;;;;;;;;;21.80;36.22;94493.69;10477504;28;1893;-62
2024/04/01 18:11:36;;;;;;;;;;;;;;;21.80;36.92;94504.22;10472238;28;1905;-61
2024/04/01 18:16:36;;;;;;;;;;;;;;;21.79;36.82;94511.34;10485331;28;2063;-60
2024/04/01 18:21:36;;;;;;;;;;;;;;;21.80;35.99;94506.88;10496731;28;1921;-61
2024/04/01 18:26:37;;;;;;;;;;;;;;;21.85;35.91;94514.63;10481220;28;2787;-61
2024/04/01 18:31:37;;;;;;;;;;;;;;;21.81;36.49;94513.69;10469709;28;2111;-61
2024/04/01 18:36:38;;;;;;;;;;;;;;;21.80;36.36;94518.16;10481991;28;1853;-61
2024/04/01 18:41:39;;;;;;;;;;;;;;;21.81;35.79;94524.22;10492349;28;2287;-61
2024/04/01 18:46:40;;;;;;;;;;;;;;;21.79;36.62;94534.31;10492574;28;1933;-62
2024/04/01 18:51:40;;;;;;;;;;;;;;;21.78;36.58;94522.22;10451282;28;1917;-61
2024/04/01 18:56:41;;;;;;;;;;;;;;;21.77;36.30;94528.56;10491026;28;1950;-61
2024/04/01 19:01:41;;;;;;;;;;;;;;;21.80;36.14;94525.34;10490842;28;1952;-61
2024/04/01 19:06:52;;;;;;;;;;;;;;;21.82;36.45;94528.47;10464053;28;2865;-60
2024/04/01 19:11:53;;;;;;;;;;;;;;;21.84;35.54;94527.03;10448171;28;2918;-59
2024/04/01 19:16:55;;;;;;;;;;;;;;;21.80;35.23;94549.06;10464047;28;2600;-59
2024/04/01 19:21:55;;;;;;;;;;;;;;;21.75;35.71;94547.34;10461706;28;2855;-60
2024/04/01 19:26:56;;;;;;;;;;;;;;;21.72;35.90;94547.22;10443720;28;2795;-62
2024/04/01 19:31:56;;;;;;;;;;;;;;;21.70;36.04;94547.50;10446329;28;2754;-58
2024/04/01 19:36:57;;;;;;;;;;;;;;;21.68;36.42;94552.31;10443815;28;2861;-58
2024/04/01 19:42:00;;;;;;;;;;;;;;;21.66;35.86;94551.03;10465539;28;2560;-60
2024/04/01 19:47:00;;;;;;;;;;;;;;;21.65;35.68;94552.16;10447477;28;2801;-59
2024/04/01 19:52:01;;;;;;;;;;;;;;;21.57;36.25;94550.28;10476763;28;3036;-59
2024/04/01 19:57:01;;;;;;;;;;;;;;;21.57;35.84;94574.78;10458552;28;2951;-60
2024/04/01 20:02:01;;;;;;;;;;;;;;;21.54;36.32;94579.88;10463625;28;2766;-59
2024/04/01 20:07:02;;;;;;;;;;;;;;;21.53;36.04;94575.72;10446150;28;2557;-59
2024/04/01 20:12:02;;;;;;;;;;;;;;;21.51;35.51;94585.78;10461943;28;2730;-60
2024/04/01 20:17:04;;;;;;;;;;;;;;;21.50;36.26;94592.13;10462759;28;2827;-59
2024/04/01 20:22:04;;;;;;;;;;;;;;;21.48;36.36;94592.44;10443120;28;2889;-59
2024/04/01 20:27:04;;;;;;;;;;;;;;;21.47;36.82;94593.53;10458845;28;2858;-59
2024/04/01 20:32:05;;;;;;;;;;;;;;;21.49;36.64;94595.88;10458845;28;2669;-59
2024/04/01 20:37:05;;;;;;;;;;;;;;;21.49;36.90;94595.88;10446785;28;2832;-59
2024/04/01 20:42:06;;;;;;;;;;;;;;;21.49;37.54;94595.88;10459666;28;2889;-59
2024/04/01 20:47:07;;;;;;;;;;;;;;;21.48;36.38;94599.56;10447153;28;2767;-59
2024/04/01 20:52:26;;;;;;;;;;;;;;;21.45;37.06;94594.94;10444318;28;2754;-60
2024/04/01 20:57:29;;;;;;;;;;;;;;;21.45;36.25;94592.28;10460565;28;2796;-59
2024/04/01 21:02:29;;;;;;;;;;;;;;;21.41;36.66;94600.00;10451799;28;2847;-59
2024/04/01 21:07:30;;;;;;;;;;;;;;;21.37;37.77;94599.06;10466613;28;2832;-59
2024/04/01 21:12:30;;;;;;;;;;;;;;;21.38;36.91;94600.63;10449331;28;2781;-59
2024/04/01 21:17:30;;;;;;;;;;;;;;;21.36;36.55;94612.56;10467728;28;2775;-59
2024/04/01 21:22:31;;;;;;;;;;;;;;;21.35;36.12;94606.50;10447487;28;2784;-60
2024/04/01 21:27:31;;;;;;;;;;;;;;;21.34;35.93;94607.59;10448380;28;2762;-59
2024/04/01 21:32:33;;;;;;;;;;;;;;;21.32;36.09;94615.03;10466669;28;2845;-60
2024/04/01 21:37:37;;;;;;;;;;;;;;;21.30;35.49;94609.28;10468935;28;2777;-60
2024/04/01 21:42:37;;;;;;;;;;;;;;;21.28;35.80;94618.59;10471396;28;2783;-60
2024/04/01 21:47:37;;;;;;;;;;;;;;;21.26;36.54;94629.44;10468167;28;2773;-60
2024/04/01 21:52:37;;;;;;;;;;;;;;;21.25;36.12;94642.91;10468590;28;2848;-59
2024/04/01 21:57:38;;;;;;;;;;;;;;;21.23;36.53;94639.78;10452725;28;2564;-59
2024/04/01 22:02:41;;;;;;;;;;;;;;;21.18;35.46;94638.09;10474670;28;2814;-59
2024/04/01 22:07:41;;;;;;;;;;;;;;;21.19;35.46;94639.63;10463826;28;2907;-59
2024/04/01 22:12:42;;;;;;;;;;;;;;;21.19;34.93;94633.56;10468001;28;2521;-59
2024/04/01 22:17:42;;;;;;;;;;;;;;;21.17;34.81;94652.34;10468217;28;2812;-59
2024/04/01 22:22:42;;;;;;;;;;;;;;;21.17;35.44;94648.91;10469420;28;2862;-60
2024/04/01 22:27:42;;;;;;;;;;;;;;;21.15;34.81;94653.72;10468784;28;2735;-60
2024/04/01 22:32:43;;;;;;;;;;;;;;;21.14;34.88;94652.94;10451868;28;2914;-59
2024/04/01 22:37:43;;;;;;;;;;;;;;;21.12;34.67;94647.22;10447054;28;2777;-60
2024/04/01 22:42:43;;;;;;;;;;;;;;;21.08;34.49;94649.66;10463792;28;2871;-59
2024/04/01 22:47:44;;;;;;;;;;;;;;;21.06;34.79;94643.91;10464085;28;2848;-60
2024/04/01 22:52:44;;;;;;;;;;;;;;;21.05;34.69;94645.00;10468485;28;2731;-59
2024/04/01 22:57:44;;;;;;;;;;;;;;;21.02;34.72;94652.72;10470820;28;2725;-59
2024/04/01 23:02:46;;;;;;;;;;;;;;;21.01;35.23;94651.94;10471042;28;2851;-59
2024/04/01 23:07:46;;;;;;;;;;;;;;;21.00;34.84;94663.53;10431671;28;2830;-59
2024/04/01 23:12:46;;;;;;;;;;;;;;;20.96;36.59;94670.47;10449280;28;2895;-59
2024/04/01 23:17:46;;;;;;;;;;;;;;;20.96;35.84;94669.69;10449436;28;2605;-59
2024/04/01 23:22:47;;;;;;;;;;;;;;;20.93;36.12;94668.47;10463079;28;2801;-59
2024/04/01 23:27:49;;;;;;;;;;;;;;;20.92;36.92;94685.34;10464173;28;2820;-59
2024/04/01 23:32:49;;;;;;;;;;;;;;;20.90;37.78;94682.22;10464416;28;2773;-59
2024/04/01 23:37:50;;;;;;;;;;;;;;;20.89;37.17;94683.31;10448724;28;2613;-59
2024/04/01 23:42:50;;;;;;;;;;;;;;;20.88;35.14;94694.91;10467131;28;2849;-59
2024/04/01 23:47:50;;;;;;;;;;;;;;;20.87;37.03;94711.03;10466663;28;2791;-59
2024/04/01 23:52:51;;;;;;;;;;;;;;;20.83;36.68;94710.84;10434088;28;2776;-59
2024/04/01 23:57:51;;;;;;;;;;;;;;;20.84;36.37;94715.03;10467479;28;2844;-59
